Time;durP1;ratioP1;P1;durP2;ratioP2;P2;SDS_P1;SDS_P2;PMS_P1;PMS_P2;Temp;Humidity;BMP_temperature;BMP_pressure;BME280_temperature;BME280_humidity;BME280_pressure;Samples;Min_cycle;Max_cycle;Signal;HPM_P1;HPM_P2
2022/07/08 00:01:38;;;;;;;5.43;2.12;;;;;;;19.80;54.94;100025.97;4405133;32;33938;-75
2022/07/08 00:04:06;;;;;;;5.03;2.15;;;;;;;19.98;54.53;100027.91;4403497;32;32346;-76
2022/07/08 00:06:34;;;;;;;5.85;2.37;;;;;;;20.16;54.22;100035.94;4419711;32;33882;-75
2022/07/08 00:09:02;;;;;;;5.82;2.45;;;;;;;20.03;54.53;100036.72;4419496;32;33649;-77
2022/07/08 00:11:30;;;;;;;4.75;2.50;;;;;;;19.97;54.78;100031.38;4417751;32;34211;-76
2022/07/08 00:13:57;;;;;;;3.72;2.20;;;;;;;19.87;55.22;100040.91;4406281;32;34651;-78
2022/07/08 00:16:25;;;;;;;5.28;2.35;;;;;;;19.84;55.27;100031.25;4415411;32;34652;-76
2022/07/08 00:18:53;;;;;;;3.72;2.03;;;;;;;19.75;55.59;100036.41;4415561;32;33881;-78
2022/07/08 00:21:20;;;;;;;4.62;2.45;;;;;;;19.52;56.52;100022.09;4415822;32;33285;-77
2022/07/08 00:23:48;;;;;;;4.45;2.20;;;;;;;19.85;55.59;100032.12;4420154;32;33790;-78
2022/07/08 00:26:16;;;;;;;4.05;2.53;;;;;;;19.93;55.28;100040.09;4418890;32;33738;-77
2022/07/08 00:28:43;;;;;;;3.70;2.20;;;;;;;19.90;55.47;100040.97;4418718;32;33802;-75
2022/07/08 00:31:10;;;;;;;3.85;2.37;;;;;;;19.83;55.66;100040.00;4419542;32;33409;-78
2022/07/08 00:33:38;;;;;;;5.18;2.60;;;;;;;19.78;55.69;100031.19;4400553;32;33773;-75
2022/07/08 00:36:06;;;;;;;4.53;2.42;;;;;;;19.75;55.78;100028.53;4417186;32;33969;-77
2022/07/08 00:38:34;;;;;;;5.35;2.20;;;;;;;19.51;56.55;100030.81;4392882;32;32182;-78
2022/07/08 00:41:01;;;;;;;4.47;2.42;;;;;;;19.09;58.05;100021.56;4421740;32;32749;-78
2022/07/08 00:43:40;;;;;;;4.20;2.70;;;;;;;18.91;58.84;100025.69;4415892;32;33728;-75
2022/07/08 00:46:08;;;;;;;4.60;2.33;;;;;;;18.78;59.39;100023.69;4420904;32;33780;-76
2022/07/08 00:48:36;;;;;;;4.68;2.35;;;;;;;18.60;60.01;100027.81;4409056;32;33704;-77
2022/07/08 00:51:09;;;;;;;6.40;2.55;;;;;;;18.43;60.75;100024.03;4409813;32;33557;-77
2022/07/08 00:53:39;;;;;;;3.95;2.15;;;;;;;18.23;61.48;100016.72;4422839;32;34174;-77
2022/07/08 00:56:08;;;;;;;4.00;2.47;;;;;;;18.41;61.13;100020.50;4418942;32;35673;-76
2022/07/08 00:58:36;;;;;;;3.50;2.55;;;;;;;17.41;64.75;100016.00;4409298;32;34011;-76
2022/07/08 01:01:04;;;;;;;5.10;2.72;;;;;;;16.80;66.94;100020.72;4423431;32;33415;-78
2022/07/08 01:03:31;;;;;;;4.72;2.40;;;;;;;17.62;64.39;100018.16;4422990;32;33758;-77
2022/07/08 01:05:59;;;;;;;4.75;2.40;;;;;;;17.80;63.78;100015.00;4422870;32;33868;-76
2022/07/08 01:08:27;;;;;;;5.40;2.75;;;;;;;17.40;64.42;100019.44;4423111;32;35153;-77
2022/07/08 01:10:55;;;;;;;6.28;3.10;;;;;;;16.88;66.65;100022.72;4423719;32;33049;-77
2022/07/08 01:13:24;;;;;;;5.75;2.60;;;;;;;17.58;64.69;100011.97;4423134;32;33891;-77
2022/07/08 01:15:51;;;;;;;9.43;2.92;;;;;;;17.36;65.40;100013.25;4409490;32;33927;-80
2022/07/08 01:18:25;;;;;;;5.32;2.95;;;;;;;17.09;66.56;100005.72;4409203;32;33965;-75
2022/07/08 01:20:54;;;;;;;4.72;2.80;;;;;;;16.65;67.92;100010.78;4423668;32;33366;-76
2022/07/08 01:23:21;;;;;;;4.62;2.83;;;;;;;17.29;66.13;100011.41;4423242;32;33878;-76
2022/07/08 01:25:50;;;;;;;4.47;2.85;;;;;;;17.61;64.83;100004.16;4423010;32;34024;-76
2022/07/08 01:28:17;;;;;;;7.35;3.45;;;;;;;18.24;62.28;100018.47;4409506;32;34017;-78
2022/07/08 01:30:45;;;;;;;4.20;3.05;;;;;;;18.25;62.11;100019.34;4423243;32;33346;-78
2022/07/08 01:33:12;;;;;;;6.72;2.90;;;;;;;16.99;66.44;100020.34;4423049;32;34822;-76
2022/07/08 01:35:40;;;;;;;5.62;2.95;;;;;;;17.36;65.38;100015.00;4423143;32;35894;-76
2022/07/08 01:38:08;;;;;;;4.45;2.58;;;;;;;17.41;65.17;100006.41;4409043;32;34606;-76
2022/07/08 01:40:35;;;;;;;4.03;2.50;;;;;;;17.88;63.66;100011.69;4422611;32;33305;-78
2022/07/08 01:43:03;;;;;;;4.85;2.42;;;;;;;17.59;64.43;100000.63;4408960;32;34714;-80
2022/07/08 01:45:30;;;;;;;5.62;2.70;;;;;;;17.99;63.21;100005.78;4421864;32;33931;-78
2022/07/08 01:47:58;;;;;;;4.97;2.45;;;;;;;17.90;63.57;100003.00;4423396;32;33458;-76
2022/07/08 01:50:25;;;;;;;8.20;2.70;;;;;;;17.96;63.24;100005.72;4419946;32;33413;-76
2022/07/08 01:52:53;;;;;;;4.85;2.50;;;;;;;18.05;63.02;100005.91;4423393;32;34070;-75
2022/07/08 01:55:21;;;;;;;5.57;2.70;;;;;;;18.10;62.80;100000.72;4422491;32;33941;-75
2022/07/08 01:57:49;;;;;;;3.55;2.40;;;;;;;18.14;62.70;100005.16;4408477;32;33869;-75
2022/07/08 02:00:16;;;;;;;3.80;2.70;;;;;;;18.00;62.99;99999.66;4422842;32;33432;-77
2022/07/08 02:02:45;;;;;;;7.35;3.00;;;;;;;17.95;63.29;100001.34;4423132;32;33987;-77
2022/07/08 02:05:13;;;;;;;6.00;2.87;;;;;;;17.99;63.05;100006.66;4421097;32;33921;-75
2022/07/08 02:07:41;;;;;;;9.15;2.80;;;;;;;17.71;64.22;100005.22;4423079;32;33260;-75
2022/07/08 02:10:10;;;;;;;5.00;2.50;;;;;;;17.92;63.35;100014.38;4422940;32;34229;-77
2022/07/08 02:12:37;;;;;;;5.55;2.78;;;;;;;18.03;62.97;100007.59;4420543;32;33417;-76
2022/07/08 02:15:07;;;;;;;4.15;2.47;;;;;;;17.99;63.04;100005.78;4421327;32;33670;-75
2022/07/08 02:17:37;;;;;;;3.83;2.62;;;;;;;17.68;63.87;100007.81;4423931;32;34483;-79
2022/07/08 02:20:07;;;;;;;5.40;2.75;;;;;;;17.72;63.67;100012.25;4422752;32;33245;-76
2022/07/08 02:22:35;;;;;;;9.15;2.42;;;;;;;16.80;67.72;100015.50;4422963;32;35746;-76
2022/07/08 02:25:03;;;;;;;6.62;2.55;;;;;;;17.06;66.37;100014.38;4423267;32;34630;-77
2022/07/08 02:27:31;;;;;;;4.00;2.65;;;;;;;17.48;65.41;100008.28;4422849;32;34294;-76
2022/07/08 02:29:58;;;;;;;3.67;2.67;;;;;;;17.23;66.52;100016.47;4422940;32;34267;-78
2022/07/08 02:32:26;;;;;;;4.50;2.62;;;;;;;18.09;62.99;100018.19;4422500;32;34565;-77
2022/07/08 02:34:53;;;;;;;4.80;2.92;;;;;;;18.12;62.88;100026.13;4422957;32;33599;-78
2022/07/08 02:37:21;;;;;;;4.50;2.30;;;;;;;18.20;62.28;100021.88;4408538;32;33244;-78
2022/07/08 02:39:48;;;;;;;5.15;2.75;;;;;;;18.38;61.71;100025.69;4422647;32;34046;-77
2022/07/08 02:42:16;;;;;;;3.85;2.12;;;;;;;18.27;61.65;100029.03;4422435;32;34025;-75
2022/07/08 02:44:43;;;;;;;4.68;2.83;;;;;;;18.67;60.63;100024.41;4422663;32;33934;-76
2022/07/08 02:47:11;;;;;;;5.15;2.33;;;;;;;18.94;59.75;100025.72;4422709;32;33802;-76
2022/07/08 02:49:39;;;;;;;5.00;2.78;;;;;;;18.84;59.99;100036.94;4422173;32;33905;-78
2022/07/08 02:52:07;;;;;;;4.45;2.50;;;;;;;19.02;59.24;100024.06;4418609;32;33945;-77
2022/07/08 02:54:34;;;;;;;4.25;2.22;;;;;;;18.90;59.47;100029.16;4423117;32;33773;-78
2022/07/08 02:57:02;;;;;;;3.30;2.40;;;;;;;18.56;60.69;100031.25;4418141;32;34608;-78
2022/07/08 02:59:30;;;;;;;4.00;2.67;;;;;;;18.65;60.42;100036.59;4422447;32;34088;-78
2022/07/08 03:01:57;;;;;;;3.85;2.30;;;;;;;18.60;60.67;100033.06;4421444;32;33885;-78
2022/07/08 03:04:25;;;;;;;4.55;2.72;;;;;;;18.81;60.09;100034.25;4421192;32;33993;-78
2022/07/08 03:06:53;;;;;;;5.50;2.80;;;;;;;18.14;61.93;100032.28;4422519;32;34537;-76
2022/07/08 03:09:20;;;;;;;4.90;2.50;;;;;;;18.22;62.34;100035.03;4422918;32;33140;-78
2022/07/08 03:11:48;;;;;;;3.50;2.30;;;;;;;18.52;61.17;100026.78;4422562;32;34104;-77
2022/07/08 03:14:15;;;;;;;4.70;2.40;;;;;;;17.93;63.48;100024.91;4408838;32;33736;-75
2022/07/08 03:16:43;;;;;;;5.37;2.67;;;;;;;18.10;62.88;100019.06;4421984;32;34745;-76
2022/07/08 03:19:12;;;;;;;6.07;2.62;;;;;;;17.32;65.87;100037.63;4422373;32;33304;-78
2022/07/08 03:21:39;;;;;;;4.53;2.53;;;;;;;17.27;66.04;100039.28;4408232;32;33957;-75
2022/07/08 03:24:07;;;;;;;5.62;2.55;;;;;;;17.25;65.79;100036.63;4421621;32;34044;-77
2022/07/08 03:26:35;;;;;;;5.65;2.72;;;;;;;17.43;65.81;100036.13;4422606;32;33611;-77
2022/07/08 03:29:02;;;;;;;4.62;2.62;;;;;;;16.58;68.99;100041.16;4415683;32;34086;-79
2022/07/08 03:31:30;;;;;;;4.50;2.80;;;;;;;17.11;67.21;100038.03;4422546;32;33629;-78
2022/07/08 03:33:58;;;;;;;5.00;2.72;;;;;;;16.70;68.33;100040.56;4409419;32;34703;-77
2022/07/08 03:36:26;;;;;;;5.60;2.45;;;;;;;17.03;67.05;100042.22;4422246;32;34522;-79
2022/07/08 03:38:53;;;;;;;4.55;2.40;;;;;;;17.04;66.97;100039.66;4421782;32;33454;-77
2022/07/08 03:41:21;;;;;;;5.57;2.33;;;;;;;17.31;66.03;100035.88;4421989;32;34686;-76
2022/07/08 03:43:52;;;;;;;4.90;2.45;;;;;;;17.54;65.28;100032.81;4408272;32;34691;-77
2022/07/08 03:46:21;;;;;;;3.70;2.30;;;;;;;17.54;65.41;100043.28;4420874;32;34014;-77
2022/07/08 03:48:49;;;;;;;3.53;2.25;;;;;;;17.65;64.58;100026.06;4422107;32;33162;-77
2022/07/08 03:51:16;;;;;;;4.03;2.25;;;;;;;17.44;65.34;100032.66;4407314;32;32680;-76
2022/07/08 03:53:44;;;;;;;5.75;2.50;;;;;;;17.43;65.55;100030.87;4422200;32;33666;-76
2022/07/08 03:56:12;;;;;;;6.20;2.97;;;;;;;17.21;66.64;100039.12;4422597;32;33954;-77
2022/07/08 03:58:40;;;;;;;3.75;2.33;;;;;;;17.47;65.67;100037.94;4422428;32;33324;-78
2022/07/08 04:01:08;;;;;;;7.50;2.35;;;;;;;17.33;66.26;100043.75;4407058;32;33733;-78
2022/07/08 04:03:35;;;;;;;4.70;2.50;;;;;;;16.52;69.40;100049.72;4408074;32;33719;-78
2022/07/08 04:06:03;;;;;;;6.22;2.40;;;;;;;17.49;66.08;100046.72;4420798;32;34672;-78
2022/07/08 04:08:31;;;;;;;3.53;2.40;;;;;;;17.45;66.20;100044.88;4422007;32;33297;-77
2022/07/08 04:10:59;;;;;;;4.30;2.65;;;;;;;16.84;68.04;100054.91;4420457;32;33961;-77
2022/07/08 04:13:27;;;;;;;3.97;2.50;;;;;;;16.75;68.56;100053.78;4410230;32;33927;-77
2022/07/08 04:15:55;;;;;;;6.25;2.83;;;;;;;17.51;65.51;100043.25;4407939;32;33821;-80
2022/07/08 04:18:25;;;;;;;6.18;2.60;;;;;;;16.69;68.65;100050.16;4421416;32;33428;-77
2022/07/08 04:20:53;;;;;;;3.65;2.60;;;;;;;17.55;65.98;100045.97;4421176;32;34000;-77
2022/07/08 04:23:21;;;;;;;4.80;2.50;;;;;;;16.90;68.55;100059.38;4421061;32;33854;-79
2022/07/08 04:25:53;;;;;;;5.07;2.90;;;;;;;17.88;65.20;100045.75;4421822;32;34704;-78
2022/07/08 04:28:20;;;;;;;4.50;2.60;;;;;;;17.14;67.57;100055.56;4409115;32;31649;-75
2022/07/08 04:30:48;;;;;;;5.45;2.60;;;;;;;17.49;66.52;100051.94;4421586;32;33793;-79
2022/07/08 04:33:16;;;;;;;4.57;2.72;;;;;;;17.75;66.01;100054.22;4422901;32;35800;-74
2022/07/08 04:35:43;;;;;;;4.90;2.67;;;;;;;17.65;66.21;100044.41;4423317;32;34048;-77
2022/07/08 04:38:11;;;;;;;6.00;3.22;;;;;;;17.33;66.63;100055.13;4408941;32;34163;-77
2022/07/08 04:40:38;;;;;;;5.60;2.60;;;;;;;17.44;67.10;100058.84;4423148;32;32163;-77
2022/07/08 04:43:06;;;;;;;4.87;2.62;;;;;;;17.05;68.05;100059.72;4423040;32;34019;-76
2022/07/08 04:45:33;;;;;;;5.80;2.95;;;;;;;17.66;65.81;100051.44;4426270;32;34107;-78
2022/07/08 04:48:01;;;;;;;4.07;2.42;;;;;;;17.58;66.22;100060.87;4423357;32;33269;-78
2022/07/08 04:50:29;;;;;;;5.72;2.97;;;;;;;17.90;65.02;100050.16;4424146;32;33927;-78
2022/07/08 04:52:56;;;;;;;4.75;2.67;;;;;;;18.02;64.27;100058.25;4431642;32;34562;-75
2022/07/08 04:55:30;;;;;;;5.03;2.30;;;;;;;17.88;64.73;100051.00;4422102;32;32478;-78
2022/07/08 04:58:00;;;;;;;5.93;2.70;;;;;;;17.78;65.03;100054.28;4422548;32;33992;-78
2022/07/08 05:00:29;;;;;;;5.18;2.62;;;;;;;17.88;64.97;100055.38;4422154;32;33944;-77
2022/07/08 05:02:57;;;;;;;5.10;2.62;;;;;;;18.04;64.54;100056.53;4423531;32;33777;-78
2022/07/08 05:05:26;;;;;;;4.53;2.78;;;;;;;17.98;64.43;100064.28;4422963;32;33847;-77
2022/07/08 05:07:54;;;;;;;3.72;2.58;;;;;;;18.02;64.65;100068.72;4423959;32;33928;-78
2022/07/08 05:10:22;;;;;;;6.22;2.80;;;;;;;18.10;64.89;100069.78;4421522;32;32180;-77
2022/07/08 05:12:49;;;;;;;4.75;2.40;;;;;;;18.31;64.32;100073.63;4424125;32;33663;-76
2022/07/08 05:15:18;;;;;;;5.80;2.53;;;;;;;18.55;63.04;100076.69;4423747;32;33959;-77
2022/07/08 05:17:46;;;;;;;4.50;2.30;;;;;;;18.72;62.67;100074.34;4408370;32;34287;-78
2022/07/08 05:20:14;;;;;;;5.25;2.62;;;;;;;18.55;62.95;100070.56;4416683;32;34501;-76
2022/07/08 05:22:42;;;;;;;4.87;2.62;;;;;;;18.51;62.98;100080.13;4414863;32;33893;-79
2022/07/08 05:25:10;;;;;;;6.00;2.70;;;;;;;18.47;63.49;100073.06;4392225;32;33028;-75
2022/07/08 05:27:38;;;;;;;4.97;2.67;;;;;;;18.46;63.89;100071.28;4400723;32;33507;-78
2022/07/08 05:30:08;;;;;;;5.85;2.72;;;;;;;17.84;66.21;100078.00;4417821;32;33690;-80
2022/07/08 05:32:36;;;;;;;5.75;3.12;;;;;;;18.50;64.08;100073.09;4421418;32;34068;-77
2022/07/08 05:35:04;;;;;;;5.22;2.72;;;;;;;18.55;63.31;100081.06;4423190;32;34218;-77
2022/07/08 05:37:37;;;;;;;5.95;2.70;;;;;;;18.58;63.76;100082.00;4420046;32;33336;-78
2022/07/08 05:40:09;;;;;;;4.62;2.95;;;;;;;18.48;64.12;100090.53;4416257;32;34560;-76
2022/07/08 05:42:38;;;;;;;6.82;3.15;;;;;;;18.61;63.05;100092.53;4419216;32;33982;-78
2022/07/08 05:45:06;;;;;;;5.70;2.85;;;;;;;18.89;62.14;100095.66;4423034;32;33961;-78
2022/07/08 05:47:34;;;;;;;5.03;2.65;;;;;;;18.93;61.74;100094.84;4423462;32;33394;-78
2022/07/08 05:50:03;;;;;;;4.82;3.03;;;;;;;18.86;61.83;100092.97;4422976;32;34514;-76
2022/07/08 05:52:30;;;;;;;5.72;3.00;;;;;;;19.14;61.51;100103.88;4422229;32;34699;-75
2022/07/08 05:54:58;;;;;;;4.75;2.67;;;;;;;19.13;61.04;100107.38;4423360;32;33887;-79
2022/07/08 05:57:25;;;;;;;4.70;2.90;;;;;;;19.11;61.24;100104.72;4411623;32;33898;-76
2022/07/08 05:59:53;;;;;;;5.32;2.95;;;;;;;19.26;60.73;100114.59;4420020;32;33451;-78
2022/07/08 06:02:49;;;;;;;4.55;2.83;;;;;;;19.21;61.51;100105.75;4409281;32;34031;-78
2022/07/08 06:05:20;;;;;;;6.32;3.33;;;;;;;18.87;62.24;100110.47;4422011;32;34669;-76
2022/07/08 06:07:47;;;;;;;5.22;2.90;;;;;;;19.20;62.00;100110.12;4421173;32;33950;-77
2022/07/08 06:10:15;;;;;;;3.90;2.53;;;;;;;19.76;60.35;100106.53;4423125;32;35708;-76
2022/07/08 06:12:42;;;;;;;4.43;2.62;;;;;;;19.73;59.01;100101.22;4422349;32;33989;-76
2022/07/08 06:15:14;;;;;;;5.65;3.00;;;;;;;19.97;58.88;100105.00;4428156;32;34392;-76
2022/07/08 06:17:42;;;;;;;5.97;3.75;;;;;;;19.69;60.26;100102.00;4409049;32;34136;-78
2022/07/08 06:20:11;;;;;;;5.22;2.47;;;;;;;20.14;59.44;100108.69;4421327;32;34438;-76
2022/07/08 06:22:41;;;;;;;5.22;2.67;;;;;;;19.88;59.61;100107.53;4419637;32;34849;-76
2022/07/08 06:25:09;;;;;;;5.90;2.83;;;;;;;19.87;60.65;100108.37;4419334;32;34481;-76
2022/07/08 06:27:38;;;;;;;5.35;2.62;;;;;;;19.88;58.97;100118.94;4405089;32;33432;-77
2022/07/08 06:30:23;;;;;;;4.97;2.80;;;;;;;20.06;58.94;100110.38;4422668;32;33902;-80
2022/07/08 06:33:10;;;;;;;4.12;2.70;;;;;;;19.84;58.77;100119.75;4423298;32;34052;-79
2022/07/08 06:35:38;;;;;;;4.03;2.60;;;;;;;19.92;59.14;100117.22;4421484;32;33845;-78
2022/07/08 06:38:05;;;;;;;4.10;2.72;;;;;;;19.49;59.96;100122.78;4419453;32;32171;-79
2022/07/08 06:40:33;;;;;;;5.10;2.75;;;;;;;20.53;58.48;100122.22;4418524;32;34530;-75
2022/07/08 06:43:00;;;;;;;3.78;2.30;;;;;;;21.00;55.75;100124.44;4428201;32;34058;-77
2022/07/08 06:45:31;;;;;;;4.40;2.80;;;;;;;20.70;56.60;100125.94;4406883;32;33874;-78
2022/07/08 06:47:59;;;;;;;5.37;2.67;;;;;;;20.03;58.08;100126.13;4421357;32;33159;-75
2022/07/08 06:50:28;;;;;;;3.87;2.67;;;;;;;20.20;57.29;100123.66;4406014;32;34612;-79
2022/07/08 06:52:55;;;;;;;3.60;2.67;;;;;;;20.32;56.90;100122.91;4419179;32;33938;-78
2022/07/08 06:55:23;;;;;;;5.95;2.90;;;;;;;20.90;56.45;100126.13;4422579;32;33718;-76
2022/07/08 06:57:51;;;;;;;6.18;3.58;;;;;;;21.65;53.99;100125.72;4407780;32;33737;-79
2022/07/08 07:00:18;;;;;;;4.90;2.55;;;;;;;22.06;51.86;100117.12;4413441;32;33950;-82
2022/07/08 07:02:49;;;;;;;4.18;2.80;;;;;;;21.38;54.76;100114.16;4421462;32;33914;-78
2022/07/08 07:05:19;;;;;;;5.00;2.80;;;;;;;20.71;55.55;100114.56;4417697;32;33444;-82
2022/07/08 07:07:47;;;;;;;4.45;2.65;;;;;;;21.07;55.86;100120.94;4415612;32;33404;-78
2022/07/08 07:10:14;;;;;;;3.92;2.53;;;;;;;21.61;54.31;100108.13;4405298;32;33940;-76
2022/07/08 07:12:42;;;;;;;4.95;2.53;;;;;;;21.92;53.13;100109.16;4407132;32;33877;-75
2022/07/08 07:15:10;;;;;;;4.03;2.35;;;;;;;22.72;50.43;100117.25;4406872;32;33889;-78
2022/07/08 07:17:40;;;;;;;3.92;2.55;;;;;;;23.15;49.65;100119.88;4417406;32;34252;-75
2022/07/08 07:20:10;;;;;;;3.53;2.30;;;;;;;23.23;49.64;100117.22;4412914;32;33813;-78
2022/07/08 07:22:38;;;;;;;4.00;2.20;;;;;;;23.83;47.71;100114.44;4409311;32;34762;-75
2022/07/08 07:25:06;;;;;;;3.65;2.40;;;;;;;24.36;46.08;100119.44;4416416;32;34354;-80
2022/07/08 07:27:40;;;;;;;4.78;2.33;;;;;;;23.99;47.28;100115.25;4410524;32;33381;-79
2022/07/08 07:30:08;;;;;;;3.58;2.08;;;;;;;24.52;45.93;100127.31;4412723;32;33727;-77
2022/07/08 07:32:36;;;;;;;4.03;2.47;;;;;;;24.82;45.37;100125.31;4417878;32;33511;-80
2022/07/08 07:35:04;;;;;;;5.75;2.05;;;;;;;23.58;47.29;100124.19;4406117;32;33326;-77
2022/07/08 07:37:36;;;;;;;5.85;3.15;;;;;;;24.91;45.40;100130.53;4420444;32;33017;-77
2022/07/08 07:40:05;;;;;;;5.10;2.42;;;;;;;24.58;44.69;100120.22;4411669;32;34024;-79
2022/07/08 07:42:32;;;;;;;7.05;2.15;;;;;;;25.72;43.59;100109.38;4420317;32;33773;-77
2022/07/08 07:45:03;;;;;;;4.28;2.83;;;;;;;24.89;43.19;100128.78;4419396;32;33826;-79
2022/07/08 07:47:31;;;;;;;3.62;2.20;;;;;;;25.16;44.31;100125.00;4422414;32;32829;-77
2022/07/08 07:49:58;;;;;;;3.90;2.00;;;;;;;25.05;43.63;100126.88;4416014;32;33825;-78
2022/07/08 07:52:26;;;;;;;4.40;2.17;;;;;;;27.14;39.71;100124.13;4413595;32;33642;-79
2022/07/08 07:54:53;;;;;;;4.65;2.20;;;;;;;24.60;43.81;100111.34;4403876;32;33385;-78
2022/07/08 07:57:21;;;;;;;3.92;1.92;;;;;;;27.18;39.13;100099.22;4404083;32;33989;-79
2022/07/08 07:59:48;;;;;;;5.60;2.10;;;;;;;25.96;41.91;100108.25;4421095;32;33850;-77
2022/07/08 08:02:16;;;;;;;4.43;2.20;;;;;;;26.64;40.37;100112.59;4419709;32;33886;-79
2022/07/08 08:04:45;;;;;;;3.37;1.95;;;;;;;26.72;39.27;100115.13;4422371;32;32164;-80
2022/07/08 08:07:12;;;;;;;2.75;1.85;;;;;;;27.17;38.86;100107.22;4407003;32;33410;-78
2022/07/08 08:09:40;;;;;;;4.87;1.87;;;;;;;28.39;37.06;100109.16;4425945;32;34377;-77
2022/07/08 08:12:08;;;;;;;3.08;1.95;;;;;;;29.27;33.32;100114.13;4420278;32;33291;-80
2022/07/08 08:14:35;;;;;;;4.85;2.12;;;;;;;28.53;33.81;100105.31;4421185;32;34814;-79
2022/07/08 08:17:03;;;;;;;3.12;1.85;;;;;;;28.63;33.83;100122.84;4423637;32;32812;-78
2022/07/08 08:19:31;;;;;;;3.80;2.03;;;;;;;30.02;30.98;100111.09;4421274;32;33906;-77
2022/07/08 08:21:59;;;;;;;4.50;1.65;;;;;;;30.20;31.05;100113.22;4427743;32;33255;-80
2022/07/08 08:24:27;;;;;;;2.72;2.00;;;;;;;30.33;30.83;100114.63;4423932;32;33859;-79
2022/07/08 08:26:55;;;;;;;2.28;1.60;;;;;;;31.20;29.91;100111.78;4422231;32;33613;-81
2022/07/08 08:29:22;;;;;;;3.03;1.67;;;;;;;31.66;28.58;100110.09;4420826;32;34578;-79
2022/07/08 08:31:53;;;;;;;3.72;1.62;;;;;;;32.30;27.50;100106.78;4419040;32;33047;-79
2022/07/08 08:34:22;;;;;;;3.20;1.90;;;;;;;31.82;28.04;100103.25;4420423;32;33591;-79
2022/07/08 08:36:50;;;;;;;4.15;1.73;;;;;;;32.32;26.17;100111.13;4404923;32;33948;-79
2022/07/08 08:39:17;;;;;;;5.45;2.47;;;;;;;31.94;27.00;100105.44;4401610;32;33653;-78
2022/07/08 08:41:45;;;;;;;2.87;1.67;;;;;;;32.13;27.01;100102.97;4415224;32;34681;-77
2022/07/08 08:44:12;;;;;;;3.92;1.80;;;;;;;32.05;27.32;100106.88;4419881;32;32097;-79
2022/07/08 08:46:41;;;;;;;7.85;2.20;;;;;;;31.69;27.19;100107.31;4404650;32;31848;-80
2022/07/08 08:49:10;;;;;;;3.00;1.77;;;;;;;30.61;29.29;100113.72;4404075;32;33530;-78
2022/07/08 08:51:39;;;;;;;4.05;2.00;;;;;;;31.05;28.99;100114.03;4415589;32;33612;-78
2022/07/08 08:54:07;;;;;;;3.03;1.80;;;;;;;30.49;30.07;100114.13;4412566;32;34756;-77
2022/07/08 08:56:37;;;;;;;6.25;2.20;;;;;;;29.51;30.89;100116.09;4403745;32;35778;-78
2022/07/08 08:59:05;;;;;;;5.00;2.12;;;;;;;29.44;31.35;100127.00;4420750;32;34465;-80
2022/07/08 09:01:32;;;;;;;4.07;2.33;;;;;;;29.56;31.35;100122.19;4405650;32;34046;-80
2022/07/08 09:04:12;;;;;;;5.28;2.15;;;;;;;29.20;31.86;100130.28;4415494;32;34629;-80
2022/07/08 09:06:40;;;;;;;3.67;2.03;;;;;;;28.87;32.77;100117.81;4404659;32;31998;-80
2022/07/08 09:09:08;;;;;;;4.20;2.03;;;;;;;29.24;32.27;100117.75;4418298;32;34673;-80
2022/07/08 09:11:35;;;;;;;5.12;2.08;;;;;;;29.40;31.50;100120.91;4421500;32;34608;-78
2022/07/08 09:14:20;;;;;;;3.25;2.10;;;;;;;29.59;31.53;100116.78;4405730;32;34025;-78
2022/07/08 09:17:07;;;;;;;4.62;1.73;;;;;;;29.79;31.16;100120.69;4406316;32;31692;-77
2022/07/08 09:19:37;;;;;;;3.20;1.92;;;;;;;29.84;30.96;100118.75;4415087;32;33968;-78
2022/07/08 09:22:07;;;;;;;4.12;2.20;;;;;;;29.33;31.82;100120.16;4406853;32;34013;-79
2022/07/08 09:24:36;;;;;;;3.10;2.00;;;;;;;28.85;32.15;100122.31;4420102;32;31835;-78
2022/07/08 09:27:08;;;;;;;3.03;1.70;;;;;;;28.77;31.62;100118.03;4418812;32;32981;-78
2022/07/08 09:29:39;;;;;;;5.22;2.17;;;;;;;29.21;30.08;100126.72;4420853;32;33826;-77
2022/07/08 09:32:11;;;;;;;4.93;2.40;;;;;;;29.09;32.22;100119.03;4406711;32;33818;-79
2022/07/08 09:34:43;;;;;;;4.15;2.37;;;;;;;28.75;33.35;100119.88;4410759;32;33553;-80
2022/07/08 09:37:15;;;;;;;5.00;2.00;;;;;;;27.46;35.69;100098.72;4416643;32;33178;-81
2022/07/08 09:39:43;;;;;;;5.57;2.60;;;;;;;27.62;34.47;100118.81;4419458;32;34671;-77
2022/07/08 09:42:16;;;;;;;5.65;2.70;;;;;;;27.25;35.74;100126.59;4414470;32;33732;-79
2022/07/08 09:44:50;;;;;;;6.22;2.47;;;;;;;27.16;36.03;100122.31;4418979;32;33875;-78
2022/07/08 09:47:18;;;;;;;3.35;2.10;;;;;;;27.71;35.26;100120.41;4418130;32;32719;-79
2022/07/08 09:49:47;;;;;;;4.25;2.20;;;;;;;27.89;34.89;100124.47;4419440;32;33860;-80
2022/07/08 09:52:22;;;;;;;3.17;2.30;;;;;;;27.74;35.12;100124.75;4416302;32;33638;-80
2022/07/08 09:55:01;;;;;;;5.62;2.50;;;;;;;27.49;35.44;100119.97;4421103;32;33218;-79
2022/07/08 09:57:30;;;;;;;4.47;2.05;;;;;;;27.44;34.31;100119.16;4420920;32;32941;-80
2022/07/08 09:59:58;;;;;;;3.17;2.03;;;;;;;27.16;36.04;100122.31;4418885;32;34108;-79
2022/07/08 10:02:27;;;;;;;4.37;2.37;;;;;;;26.74;36.49;100119.50;4421841;32;33925;-80
2022/07/08 10:04:55;;;;;;;4.20;2.20;;;;;;;26.64;37.26;100123.22;4407776;32;34659;-82
2022/07/08 10:07:23;;;;;;;4.65;2.35;;;;;;;26.33;38.00;100125.41;4407175;32;33425;-78
2022/07/08 10:09:50;;;;;;;6.07;2.45;;;;;;;25.33;40.33;100127.53;4422556;32;33648;-79
2022/07/08 10:12:19;;;;;;;5.78;2.40;;;;;;;26.06;38.78;100125.78;4422436;32;34037;-79
2022/07/08 10:14:46;;;;;;;4.65;2.40;;;;;;;26.12;38.56;100118.66;4408794;32;34081;-79
2022/07/08 10:17:17;;;;;;;3.53;2.12;;;;;;;26.19;37.91;100120.31;4409040;32;33326;-76
2022/07/08 10:19:46;;;;;;;5.90;2.40;;;;;;;26.01;38.02;100127.63;4419793;32;34662;-76
2022/07/08 10:22:15;;;;;;;3.58;1.80;;;;;;;26.03;37.15;100130.25;4421492;32;33991;-79
2022/07/08 10:24:43;;;;;;;6.68;2.12;;;;;;;26.12;36.58;100131.94;4405894;32;33772;-81
2022/07/08 10:27:11;;;;;;;5.05;2.25;;;;;;;26.11;36.22;100117.75;4390051;32;32458;-79
2022/07/08 10:29:40;;;;;;;3.40;1.90;;;;;;;26.00;36.83;100128.53;4419633;32;34661;-76
2022/07/08 10:32:26;;;;;;;3.20;1.85;;;;;;;25.92;36.64;100133.03;4407051;32;34385;-78
2022/07/08 10:35:11;;;;;;;4.85;2.40;;;;;;;26.33;36.65;100128.97;4407670;32;33671;-77
2022/07/08 10:37:50;;;;;;;4.20;1.95;;;;;;;26.15;36.90;100134.53;4408087;32;33045;-81
2022/07/08 10:40:42;;;;;;;4.45;1.90;;;;;;;26.82;35.15;100137.97;4423363;32;33584;-80
2022/07/08 10:43:19;;;;;;;4.50;2.22;;;;;;;26.07;36.00;100137.28;4409496;32;34038;-75
2022/07/08 10:46:01;;;;;;;3.05;1.70;;;;;;;26.18;35.80;100135.37;4419129;32;32745;-77
2022/07/08 10:48:48;;;;;;;3.90;1.87;;;;;;;26.30;35.17;100134.31;4416408;32;33045;-77
2022/07/08 10:51:25;;;;;;;2.83;1.95;;;;;;;26.61;34.49;100134.75;4407149;32;33884;-79
2022/07/08 10:54:09;;;;;;;4.75;1.90;;;;;;;26.58;34.67;100131.22;4423327;32;34414;-80
2022/07/08 10:57:00;;;;;;;5.75;2.10;;;;;;;26.65;35.02;100135.59;4401964;32;33885;-79
2022/07/08 10:59:33;;;;;;;3.45;1.90;;;;;;;26.69;34.14;100131.97;4418851;32;33887;-77
2022/07/08 11:02:10;;;;;;;3.22;2.10;;;;;;;26.24;34.37;100142.37;4397028;32;33210;-79
2022/07/08 11:04:38;;;;;;;2.60;1.50;;;;;;;26.44;33.82;100145.63;4403751;32;33735;-78
2022/07/08 11:07:14;;;;;;;3.40;1.85;;;;;;;26.00;34.14;100143.56;4417440;32;34515;-80
2022/07/08 11:09:43;;;;;;;4.87;1.80;;;;;;;26.13;34.20;100146.94;4411120;32;33212;-79
2022/07/08 11:12:12;;;;;;;3.10;1.70;;;;;;;26.51;33.55;100148.19;4420390;32;34046;-79
2022/07/08 11:14:47;;;;;;;4.32;1.98;;;;;;;26.23;34.00;100140.59;4413535;32;34047;-80
2022/07/08 11:17:18;;;;;;;4.10;1.77;;;;;;;26.01;35.02;100156.81;4413544;32;33344;-77
2022/07/08 11:19:47;;;;;;;5.18;1.85;;;;;;;25.81;35.21;100154.38;4420910;32;33558;-77
2022/07/08 11:22:15;;;;;;;3.15;1.70;;;;;;;25.91;34.45;100155.19;4395763;32;82779;-78
2022/07/08 11:24:54;;;;;;;3.17;1.77;;;;;;;26.92;33.29;100154.66;4416144;32;33707;-77
2022/07/08 11:27:27;;;;;;;6.90;2.45;;;;;;;26.67;33.88;100160.34;4405303;32;33872;-79
2022/07/08 11:29:55;;;;;;;5.60;1.92;;;;;;;27.35;33.07;100165.44;4410609;32;33470;-78
2022/07/08 11:32:25;;;;;;;5.30;2.00;;;;;;;26.64;32.92;100155.09;4405123;32;34563;-78
2022/07/08 11:34:54;;;;;;;3.15;1.90;;;;;;;27.22;32.18;100162.09;4415777;32;33961;-77